Overseas Boston — WJBU — position and weather

sailwx.info

Track history (hours):
 
Tides and Currents Weather Stations Pressure Air Temp Water Temp Dewpoint Dewpoint Depression Visibility Wind Speed Wind Dir Waves Ship Positions

Overseas Boston

Owner: ASC Leasing VI, Inc., Philadelphia, PA. More information available from US FCC via Universal Licensing System and Coast Guard Vessel Documentation Center.

Last reported at 2016-May-24 04:31 UTC. Time now 2016-May-24 06:05 UTC.
Position N 33°47' W 118°13'.

Length 183 m; draft 8.2 m.

Type: Tanker. MMSI: 338221000.

Date/timePositionNaut miles runAvg speedWind from/ knotsBaromVisibWave heightAir tempDewpointWater temp
2016-May-24 04:31N 33°47' W 118°13'0 0.0
2016-May-24 03:31N 33°47' W 118°13'  
2016-May-21 02:27N 33°36' W 118°21'23313.0
2016-May-20 08:32N 34°56' W 122°47'65815.2
2016-May-18 13:11N 45°38' W 126°00'1015.5
2016-May-18 12:32N 45°48' W 126°00'1515.4
2016-May-18 11:33N 46°03' W 126°00'1514.9
2016-May-18 10:32N 46°18' W 126°00'1515.1
2016-May-18 09:33N 46°33' W 126°00'1018.0
2016-May-18 09:00N 46°42' W 125°54'716.8 010 / 51026.110.8 0.513.310.510.6
2016-May-18 08:33N 46°48' W 126°00'1515.3
2016-May-18 07:33N 47°03' W 126°00'1515.1
2016-May-18 06:33N 47°18' W 126°00'1515.2
2016-May-18 05:33N 47°34' W 125°60'1515.3
2016-May-18 04:33N 47°49' W 126°00'1515.3
2016-May-18 03:33N 48°04' W 126°00'1414.1
2016-May-18 02:33N 48°16' W 125°50'1514.8
2016-May-18 01:33N 48°27' W 125°35'1414.0
2016-May-18 00:33N 48°30' W 125°14'1615.5
2016-May-17 23:33N 48°30' W 124°51'4414.6
2016-May-17 20:30N 48°17' W 123°47'1313.8
2016-May-17 19:33N 48°13' W 123°28'8 7.9
2016-May-17 18:33N 48°10' W 123°17'1312.6
2016-May-17 17:32N 48°19' W 123°03'1212.1
2016-May-17 16:33N 48°25' W 122°48'1010.2
2016-May-17 15:33N 48°32' W 122°36'2 1.4
2016-May-17 14:28N 48°31' W 122°34'0 0.0
2016-May-17 13:28N 48°31' W 122°34'0 0.0
2016-May-17 12:28N 48°31' W 122°34'0 0.0
2016-May-17 11:22N 48°31' W 122°34'0 0.0
2016-May-17 10:16N 48°31' W 122°34'0 0.0
2016-May-17 09:28N 48°31' W 122°34'0 0.0
2016-May-17 08:16N 48°31' W 122°34'0 0.0
2016-May-17 07:28N 48°31' W 122°34'0 0.0
2016-May-17 06:28N 48°31' W 122°34'0 0.0
2016-May-17 05:28N 48°31' W 122°34'0 0.0
2016-May-17 04:28N 48°31' W 122°34'0 0.0
2016-May-17 03:22N 48°31' W 122°34'0 0.0
2016-May-17 02:28N 48°31' W 122°34'0 0.0
2016-May-17 01:28N 48°31' W 122°34'0 0.0
2016-May-17 00:28N 48°31' W 122°34'0 0.0
2016-May-16 23:28N 48°31' W 122°34'0 0.0
2016-May-16 22:22N 48°31' W 122°34'0 0.0
2016-May-16 21:28N 48°31' W 122°34'0 0.0
2016-May-16 20:28N 48°31' W 122°34'0 0.0
2016-May-16 19:22N 48°31' W 122°34'0 0.0
2016-May-16 18:28N 48°31' W 122°34'0 0.0
2016-May-16 17:22N 48°31' W 122°34'0 0.0
2016-May-16 16:22N 48°31' W 122°34'0 0.0
2016-May-16 15:28N 48°31' W 122°34'2 2.4
2016-May-16 14:33N 48°31' W 122°37'7 7.3
2016-May-16 13:33N 48°27' W 122°46'1212.0
2016-May-16 12:32N 48°19' W 122°60'1212.4
2016-May-16 11:33N 48°13' W 123°16'10 9.5
2016-May-16 10:33N 48°12' W 123°30'1010.3
2016-May-16 09:33N 48°13' W 123°45'1010.6
2016-May-16 08:33N 48°15' W 124°01'1110.6
2016-May-16 07:29N 48°20' W 124°17'5313.4
2016-May-16 03:34N 48°28' W 125°35'1413.5
2016-May-16 02:33N 48°18' W 125°48'1414.1
2016-May-16 01:32N 48°06' W 126°00'1514.4
2016-May-16 00:31N 47°52' W 126°00'1514.0
2016-May-15 23:27N 47°37' W 126°00'1310.2
2016-May-15 22:07N 47°23' W 125°60'712.7
2016-May-15 21:33N 47°16' W 126°00'2712.9
2016-May-15 19:30N 46°49' W 126°00'1010.6
2016-May-15 18:31N 46°41' W 125°52'19 9.6
2016-May-15 16:34N 46°32' W 125°28'1514.6
2016-May-15 15:33N 46°26' W 125°09'1414.5
2016-May-15 14:34N 46°20' W 124°50'1514.5
2016-May-15 13:34N 46°16' W 124°30'1414.2
2016-May-15 12:34N 46°12' W 124°10'1110.7
2016-May-15 11:33N 46°11' W 123°54'1211.8
2016-May-15 10:33N 46°16' W 123°38'1211.7
2016-May-15 09:33N 46°09' W 123°24'1212.4
2016-May-15 08:34N 46°11' W 123°06'1211.8
2016-May-15 07:33N 46°03' W 122°53'1110.9
2016-May-15 06:33N 45°53' W 122°48'1313.4
2016-May-15 05:33N 45°39' W 122°46'2 1.7
2016-May-15 04:31N 45°38' W 122°44'0 0.0
2016-May-15 03:31N 45°38' W 122°44'0 0.0
2016-May-15 02:31N 45°38' W 122°44'0 0.0
2016-May-15 01:31N 45°38' W 122°44'0 0.0
2016-May-15 00:28N 45°38' W 122°44'0 0.0
2016-May-14 23:31N 45°38' W 122°44'0 0.0
2016-May-14 22:31N 45°38' W 122°44'0 0.0
2016-May-14 21:31N 45°38' W 122°44'0 0.0
2016-May-14 20:28N 45°38' W 122°44'0 0.0
2016-May-14 19:28N 45°38' W 122°44'0 0.0
2016-May-14 18:31N 45°38' W 122°44'0 0.0
2016-May-14 17:31N 45°38' W 122°44'0 0.0
2016-May-14 16:31N 45°38' W 122°44'0 0.0
2016-May-14 15:25N 45°38' W 122°44'0 0.0
2016-May-14 14:31N 45°38' W 122°44'0 0.0
2016-May-14 13:31N 45°38' W 122°44'0 0.0
2016-May-14 12:31N 45°38' W 122°44'0 0.0
2016-May-14 11:31N 45°38' W 122°44'0 0.0
2016-May-14 10:31N 45°38' W 122°44'0 0.0
2016-May-14 09:31N 45°38' W 122°44'0 0.0
2016-May-14 08:31N 45°38' W 122°44'0 0.0
2016-May-14 07:31N 45°38' W 122°44'0 0.0
2016-May-14 06:31N 45°38' W 122°44'0 0.0
2016-May-14 05:31N 45°38' W 122°44'0 0.0
2016-May-14 04:31N 45°38' W 122°44'  
Track history (hours):
 
Tides and Currents Weather Stations Pressure Air Temp Water Temp Dewpoint Dewpoint Depression Visibility Wind Speed Wind Dir Waves Ship Positions

Overseas Boston

Owner: ASC Leasing VI, Inc., Philadelphia, PA. More information available from US FCC via Universal Licensing System and Coast Guard Vessel Documentation Center.

Last reported at 2016-May-24 04:31 UTC. Time now 2016-May-24 06:05 UTC.
Position N 33°47' W 118°13'.

Length 183 m; draft 8.2 m.

Type: Tanker. MMSI: 338221000.

Date/timePositionNaut miles runAvg speedWind from/ knotsBaromVisibWave heightAir tempDewpointWater temp
2016-May-24 04:31N 33°47' W 118°13'0 0.0
2016-May-24 03:31N 33°47' W 118°13'  
2016-May-21 02:27N 33°36' W 118°21'23313.0
2016-May-20 08:32N 34°56' W 122°47'65815.2
2016-May-18 13:11N 45°38' W 126°00'1015.5
2016-May-18 12:32N 45°48' W 126°00'1515.4
2016-May-18 11:33N 46°03' W 126°00'1514.9
2016-May-18 10:32N 46°18' W 126°00'1515.1
2016-May-18 09:33N 46°33' W 126°00'1018.0
2016-May-18 09:00N 46°42' W 125°54'716.8 010 / 51026.110.8 0.513.310.510.6
2016-May-18 08:33N 46°48' W 126°00'1515.3
2016-May-18 07:33N 47°03' W 126°00'1515.1
2016-May-18 06:33N 47°18' W 126°00'1515.2
2016-May-18 05:33N 47°34' W 125°60'1515.3
2016-May-18 04:33N 47°49' W 126°00'1515.3
2016-May-18 03:33N 48°04' W 126°00'1414.1
2016-May-18 02:33N 48°16' W 125°50'1514.8
2016-May-18 01:33N 48°27' W 125°35'1414.0
2016-May-18 00:33N 48°30' W 125°14'1615.5
2016-May-17 23:33N 48°30' W 124°51'4414.6
2016-May-17 20:30N 48°17' W 123°47'1313.8
2016-May-17 19:33N 48°13' W 123°28'8 7.9
2016-May-17 18:33N 48°10' W 123°17'1312.6
2016-May-17 17:32N 48°19' W 123°03'1212.1
2016-May-17 16:33N 48°25' W 122°48'1010.2
2016-May-17 15:33N 48°32' W 122°36'2 1.4
2016-May-17 14:28N 48°31' W 122°34'0 0.0
2016-May-17 13:28N 48°31' W 122°34'0 0.0
2016-May-17 12:28N 48°31' W 122°34'0 0.0
2016-May-17 11:22N 48°31' W 122°34'0 0.0
2016-May-17 10:16N 48°31' W 122°34'0 0.0
2016-May-17 09:28N 48°31' W 122°34'0 0.0
2016-May-17 08:16N 48°31' W 122°34'0 0.0
2016-May-17 07:28N 48°31' W 122°34'0 0.0
2016-May-17 06:28N 48°31' W 122°34'0 0.0
2016-May-17 05:28N 48°31' W 122°34'0 0.0
2016-May-17 04:28N 48°31' W 122°34'0 0.0
2016-May-17 03:22N 48°31' W 122°34'0 0.0
2016-May-17 02:28N 48°31' W 122°34'0 0.0
2016-May-17 01:28N 48°31' W 122°34'0 0.0
2016-May-17 00:28N 48°31' W 122°34'0 0.0
2016-May-16 23:28N 48°31' W 122°34'0 0.0
2016-May-16 22:22N 48°31' W 122°34'0 0.0
2016-May-16 21:28N 48°31' W 122°34'0 0.0
2016-May-16 20:28N 48°31' W 122°34'0 0.0
2016-May-16 19:22N 48°31' W 122°34'0 0.0
2016-May-16 18:28N 48°31' W 122°34'0 0.0
2016-May-16 17:22N 48°31' W 122°34'0 0.0
2016-May-16 16:22N 48°31' W 122°34'0 0.0
2016-May-16 15:28N 48°31' W 122°34'2 2.4
2016-May-16 14:33N 48°31' W 122°37'7 7.3
2016-May-16 13:33N 48°27' W 122°46'1212.0
2016-May-16 12:32N 48°19' W 122°60'1212.4
2016-May-16 11:33N 48°13' W 123°16'10 9.5
2016-May-16 10:33N 48°12' W 123°30'1010.3
2016-May-16 09:33N 48°13' W 123°45'1010.6
2016-May-16 08:33N 48°15' W 124°01'1110.6
2016-May-16 07:29N 48°20' W 124°17'5313.4
2016-May-16 03:34N 48°28' W 125°35'1413.5
2016-May-16 02:33N 48°18' W 125°48'1414.1
2016-May-16 01:32N 48°06' W 126°00'1514.4
2016-May-16 00:31N 47°52' W 126°00'1514.0
2016-May-15 23:27N 47°37' W 126°00'1310.2
2016-May-15 22:07N 47°23' W 125°60'712.7
2016-May-15 21:33N 47°16' W 126°00'2712.9
2016-May-15 19:30N 46°49' W 126°00'1010.6
2016-May-15 18:31N 46°41' W 125°52'19 9.6
2016-May-15 16:34N 46°32' W 125°28'1514.6
2016-May-15 15:33N 46°26' W 125°09'1414.5
2016-May-15 14:34N 46°20' W 124°50'1514.5
2016-May-15 13:34N 46°16' W 124°30'1414.2
2016-May-15 12:34N 46°12' W 124°10'1110.7
2016-May-15 11:33N 46°11' W 123°54'1211.8
2016-May-15 10:33N 46°16' W 123°38'1211.7
2016-May-15 09:33N 46°09' W 123°24'1212.4
2016-May-15 08:34N 46°11' W 123°06'1211.8
2016-May-15 07:33N 46°03' W 122°53'1110.9
2016-May-15 06:33N 45°53' W 122°48'1313.4
2016-May-15 05:33N 45°39' W 122°46'2 1.7
2016-May-15 04:31N 45°38' W 122°44'0 0.0
2016-May-15 03:31N 45°38' W 122°44'0 0.0
2016-May-15 02:31N 45°38' W 122°44'0 0.0
2016-May-15 01:31N 45°38' W 122°44'0 0.0
2016-May-15 00:28N 45°38' W 122°44'0 0.0
2016-May-14 23:31N 45°38' W 122°44'0 0.0
2016-May-14 22:31N 45°38' W 122°44'0 0.0
2016-May-14 21:31N 45°38' W 122°44'0 0.0
2016-May-14 20:28N 45°38' W 122°44'0 0.0
2016-May-14 19:28N 45°38' W 122°44'0 0.0
2016-May-14 18:31N 45°38' W 122°44'0 0.0
2016-May-14 17:31N 45°38' W 122°44'0 0.0
2016-May-14 16:31N 45°38' W 122°44'0 0.0
2016-May-14 15:25N 45°38' W 122°44'0 0.0
2016-May-14 14:31N 45°38' W 122°44'0 0.0
2016-May-14 13:31N 45°38' W 122°44'0 0.0
2016-May-14 12:31N 45°38' W 122°44'0 0.0
2016-May-14 11:31N 45°38' W 122°44'0 0.0
2016-May-14 10:31N 45°38' W 122°44'0 0.0
2016-May-14 09:31N 45°38' W 122°44'0 0.0
2016-May-14 08:31N 45°38' W 122°44'0 0.0
2016-May-14 07:31N 45°38' W 122°44'0 0.0
2016-May-14 06:31N 45°38' W 122°44'0 0.0
2016-May-14 05:31N 45°38' W 122°44'0 0.0
2016-May-14 04:31N 45°38' W 122°44'  

Dump ship's entire track history